createdAt,value
2023-03-06T00:00:52.087Z,1.00
2023-03-06T00:03:20.130Z,1.00
2023-03-06T00:05:49.033Z,1.10
2023-03-06T00:08:17.024Z,1.10
2023-03-06T00:10:44.839Z,1.10
2023-03-06T00:13:15.079Z,1.10
2023-03-06T00:15:43.048Z,1.10
2023-03-06T00:18:12.136Z,1.10
2023-03-06T00:20:41.411Z,1.00
2023-03-06T00:23:09.351Z,1.10
2023-03-06T00:25:38.743Z,1.10
2023-03-06T00:28:07.225Z,1.00
2023-03-06T00:30:35.134Z,1.00
2023-03-06T00:33:03.056Z,1.00
2023-03-06T00:35:32.152Z,1.00
2023-03-06T00:38:00.006Z,1.00
2023-03-06T00:40:27.869Z,1.00
2023-03-06T00:42:55.584Z,1.00
2023-03-06T00:45:23.404Z,1.00
2023-03-06T00:47:51.183Z,1.00
2023-03-06T00:50:18.984Z,1.00
2023-03-06T00:52:48.118Z,1.10
2023-03-06T00:55:15.961Z,1.10
2023-03-06T00:57:43.716Z,1.10
2023-03-06T01:00:13.216Z,1.10
2023-03-06T01:02:41.574Z,1.10
2023-03-06T01:05:10.793Z,1.10
2023-03-06T01:07:38.558Z,1.10
2023-03-06T01:10:09.215Z,1.10
2023-03-06T01:12:37.037Z,1.00
2023-03-06T01:15:06.037Z,1.00
2023-03-06T01:17:33.848Z,1.00
2023-03-06T01:20:01.729Z,0.90
2023-03-06T01:22:29.619Z,1.00
2023-03-06T01:24:57.358Z,1.00
2023-03-06T01:27:26.516Z,1.00
2023-03-06T01:29:54.225Z,1.00
2023-03-06T01:32:22.449Z,1.00
2023-03-06T01:34:50.318Z,1.00
2023-03-06T01:37:18.081Z,1.10
2023-03-06T01:39:45.812Z,1.10
2023-03-06T01:42:13.715Z,1.10
2023-03-06T01:45:01.733Z,1.10
2023-03-06T01:47:29.921Z,1.10
2023-03-06T01:49:59.870Z,1.10
2023-03-06T01:52:31.967Z,1.10
2023-03-06T01:55:03.244Z,1.10
2023-03-06T01:57:34.010Z,1.20
2023-03-06T02:00:06.449Z,1.20
2023-03-06T02:02:34.292Z,1.20
2023-03-06T02:05:05.290Z,1.30
2023-03-06T02:07:33.710Z,1.20
2023-03-06T02:10:01.664Z,1.20
2023-03-06T02:12:29.761Z,1.20
2023-03-06T02:14:57.873Z,1.20
2023-03-06T02:17:27.888Z,1.20
2023-03-06T02:20:02.809Z,1.10
2023-03-06T02:22:37.099Z,1.20
2023-03-06T02:25:10.357Z,1.20
2023-03-06T02:27:39.700Z,1.20
2023-03-06T02:30:08.961Z,1.20
2023-03-06T02:32:36.786Z,1.30
2023-03-06T02:35:04.785Z,1.20
2023-03-06T02:37:32.516Z,1.20
2023-03-06T02:40:06.166Z,1.20
2023-03-06T02:42:33.927Z,1.20
2023-03-06T02:45:04.853Z,1.20
2023-03-06T02:47:33.136Z,1.20
2023-03-06T02:50:00.874Z,1.20
2023-03-06T02:52:28.591Z,1.20
2023-03-06T02:54:56.287Z,1.30
2023-03-06T02:57:24.015Z,1.30
2023-03-06T02:59:51.746Z,1.30
2023-03-06T03:02:20.805Z,1.30
2023-03-06T03:04:48.583Z,1.30
2023-03-06T03:07:16.326Z,1.30
2023-03-06T03:09:44.203Z,1.30
2023-03-06T03:12:12.048Z,1.40
2023-03-06T03:14:39.767Z,1.40
2023-03-06T03:17:07.551Z,1.40
2023-03-06T03:19:36.596Z,1.40
2023-03-06T03:22:04.544Z,1.40
2023-03-06T03:24:32.282Z,1.40
2023-03-06T03:27:00.219Z,1.40
2023-03-06T03:29:28.020Z,1.50
2023-03-06T03:31:55.830Z,1.50
2023-03-06T03:34:23.579Z,1.50
2023-03-06T03:36:52.627Z,1.50
2023-03-06T03:39:20.791Z,1.50
2023-03-06T03:41:48.898Z,1.60
2023-03-06T03:44:16.708Z,1.50
2023-03-06T03:46:44.455Z,1.50
2023-03-06T03:49:12.274Z,1.50
2023-03-06T03:51:40.069Z,1.50
2023-03-06T03:54:09.139Z,1.60
2023-03-06T03:56:37.007Z,1.60
2023-03-06T03:59:04.710Z,1.70
2023-03-06T04:01:32.517Z,1.70
2023-03-06T04:04:00.271Z,1.70
2023-03-06T04:06:28.329Z,1.70
2023-03-06T04:08:56.455Z,1.70
2023-03-06T04:11:25.506Z,1.80
2023-03-06T04:13:53.247Z,1.80
2023-03-06T04:16:21.613Z,1.80
2023-03-06T04:18:49.334Z,1.80
2023-03-06T04:21:17.029Z,1.90
2023-03-06T04:23:44.751Z,1.80
2023-03-06T04:26:12.483Z,1.80
2023-03-06T04:28:41.754Z,1.90
2023-03-06T04:31:09.541Z,1.90
2023-03-06T04:33:37.279Z,1.90
2023-03-06T04:36:05.733Z,1.90
2023-03-06T04:38:33.539Z,1.90
2023-03-06T04:41:01.265Z,1.90
2023-03-06T04:43:29.203Z,1.90
2023-03-06T04:45:59.075Z,2.00
2023-03-06T04:48:26.784Z,2.00
2023-03-06T04:50:54.470Z,1.90
2023-03-06T04:53:22.209Z,2.00
2023-03-06T04:55:49.922Z,2.00
2023-03-06T04:58:17.734Z,1.90
2023-03-06T05:00:45.689Z,1.90
2023-03-06T05:03:15.334Z,2.00
2023-03-06T05:05:43.633Z,2.00
2023-03-06T05:08:15.205Z,2.00
2023-03-06T05:10:43.195Z,2.00
2023-03-06T05:13:11.627Z,2.00
2023-03-06T05:15:42.011Z,2.00
2023-03-06T05:18:09.859Z,1.90
2023-03-06T05:20:38.983Z,1.90
2023-03-06T05:23:06.737Z,1.90
2023-03-06T05:25:34.438Z,1.90
2023-03-06T05:28:02.153Z,1.90
2023-03-06T05:30:29.864Z,1.80
2023-03-06T05:32:57.657Z,1.90
2023-03-06T05:35:25.445Z,1.90
2023-03-06T05:37:54.532Z,1.80
2023-03-06T05:40:22.422Z,1.90
2023-03-06T05:42:50.204Z,1.80
2023-03-06T05:45:18.031Z,1.80
2023-03-06T05:47:46.243Z,1.80
2023-03-06T05:50:14.868Z,1.80
2023-03-06T05:52:42.635Z,1.80
2023-03-06T05:55:13.681Z,1.80
2023-03-06T05:57:41.382Z,1.70
2023-03-06T06:00:11.525Z,1.70
2023-03-06T06:02:39.276Z,1.70
2023-03-06T06:05:08.026Z,1.70
2023-03-06T06:07:35.749Z,1.70
2023-03-06T06:10:04.242Z,1.70
2023-03-06T06:12:33.859Z,1.70
2023-03-06T06:15:01.623Z,1.70
2023-03-06T06:17:29.455Z,1.60
2023-03-06T06:19:57.181Z,1.60
2023-03-06T06:22:24.888Z,1.60
2023-03-06T06:24:52.668Z,1.60
2023-03-06T06:27:20.513Z,1.60
2023-03-06T06:29:53.201Z,1.60
2023-03-06T06:32:21.024Z,1.60
2023-03-06T06:34:48.839Z,1.60
2023-03-06T06:37:17.557Z,1.50
2023-03-06T06:39:45.304Z,1.50
2023-03-06T06:42:30.498Z,1.50
2023-03-06T06:45:02.144Z,1.50
2023-03-06T06:47:30.124Z,1.50
2023-03-06T06:49:58.378Z,1.40
2023-03-06T06:52:26.674Z,1.40
2023-03-06T06:54:54.670Z,1.50
2023-03-06T06:57:22.744Z,1.50
2023-03-06T06:59:52.593Z,1.50
2023-03-06T07:02:23.678Z,1.50
2023-03-06T07:05:06.946Z,1.40
2023-03-06T07:07:36.467Z,1.50
2023-03-06T07:10:06.430Z,1.60
2023-03-06T07:12:35.117Z,1.60
2023-03-06T07:15:03.411Z,1.70
2023-03-06T07:17:32.599Z,1.70
2023-03-06T07:20:00.530Z,1.70
2023-03-06T07:22:31.947Z,1.70
2023-03-06T07:25:01.831Z,1.80
2023-03-06T07:27:29.556Z,1.80
2023-03-06T07:29:57.328Z,1.90
2023-03-06T07:32:25.564Z,2.00
2023-03-06T07:35:06.158Z,2.00
2023-03-06T07:37:42.406Z,2.00
2023-03-06T07:40:12.263Z,2.00
2023-03-06T07:42:40.015Z,2.00
2023-03-06T07:45:09.089Z,2.00
2023-03-06T07:47:36.892Z,2.00
2023-03-06T07:50:07.287Z,2.10
2023-03-06T07:52:35.152Z,2.10
2023-03-06T07:55:03.164Z,2.00
2023-03-06T07:57:30.887Z,2.00
2023-03-06T07:59:58.587Z,1.90
2023-03-06T08:02:26.351Z,1.80
2023-03-06T08:04:55.109Z,1.90
2023-03-06T08:07:24.910Z,1.90
2023-03-06T08:09:52.690Z,1.80
2023-03-06T08:12:20.391Z,1.80
2023-03-06T08:14:48.100Z,2.00
2023-03-06T08:17:15.961Z,2.00
2023-03-06T08:19:43.662Z,2.00
2023-03-06T08:22:13.900Z,1.90
2023-03-06T08:24:43.095Z,1.80
2023-03-06T08:27:10.810Z,1.80
2023-03-06T08:29:38.567Z,1.80
2023-03-06T08:32:07.106Z,1.70
2023-03-06T08:34:34.889Z,1.80
2023-03-06T08:37:02.571Z,1.80
2023-03-06T08:39:30.270Z,1.80
2023-03-06T08:41:59.310Z,1.90
2023-03-06T08:44:26.999Z,2.00
2023-03-06T08:46:54.696Z,1.90
2023-03-06T08:49:22.773Z,1.90
2023-03-06T08:51:50.530Z,2.00
2023-03-06T08:54:18.483Z,2.00
2023-03-06T08:56:46.253Z,2.10
2023-03-06T08:59:15.344Z,2.30
2023-03-06T09:01:43.208Z,2.30
2023-03-06T09:04:12.065Z,2.40
2023-03-06T09:06:41.793Z,2.50
2023-03-06T09:09:10.486Z,2.50
2023-03-06T09:11:38.658Z,2.40
2023-03-06T09:14:07.120Z,2.40
2023-03-06T09:16:36.183Z,2.30
2023-03-06T09:19:04.183Z,2.30
2023-03-06T09:21:32.054Z,2.30
2023-03-06T09:24:00.355Z,2.20
2023-03-06T09:26:43.496Z,2.10
2023-03-06T09:29:12.813Z,2.10
2023-03-06T09:31:41.904Z,2.10
2023-03-06T09:34:09.645Z,2.10
2023-03-06T09:36:53.439Z,2.00
2023-03-06T09:39:23.958Z,2.10
2023-03-06T09:41:52.498Z,2.30
2023-03-06T09:44:23.611Z,2.30
2023-03-06T09:47:08.728Z,2.30
2023-03-06T09:49:47.652Z,2.40
2023-03-06T09:52:28.260Z,2.10
2023-03-06T09:54:58.182Z,2.20
2023-03-06T09:57:28.812Z,2.20
2023-03-06T10:00:02.048Z,2.30
2023-03-06T10:02:38.657Z,2.40
2023-03-06T10:05:11.711Z,2.60
2023-03-06T10:07:46.517Z,2.80
2023-03-06T10:10:20.347Z,3.00
2023-03-06T10:12:54.650Z,2.90
2023-03-06T10:15:26.446Z,2.80
2023-03-06T10:17:56.760Z,2.80
2023-03-06T10:20:27.363Z,2.50
2023-03-06T10:23:11.815Z,2.40
2023-03-06T10:25:47.366Z,2.40
2023-03-06T10:28:17.952Z,2.10
2023-03-06T10:30:53.629Z,2.00
2023-03-06T10:33:36.418Z,2.00
2023-03-06T10:36:04.639Z,1.90
2023-03-06T10:38:37.492Z,1.90
2023-03-06T10:41:09.439Z,1.90
2023-03-06T10:43:39.809Z,2.00
2023-03-06T10:46:09.062Z,2.10
2023-03-06T10:48:41.677Z,2.00
2023-03-06T10:51:19.126Z,2.00
2023-03-06T10:53:53.199Z,1.90
2023-03-06T10:56:29.630Z,1.90
2023-03-06T10:59:09.220Z,1.90
2023-03-06T11:01:37.121Z,1.90
2023-03-06T11:04:28.263Z,1.80
2023-03-06T11:07:15.250Z,1.80
2023-03-06T11:09:44.194Z,1.80
2023-03-06T11:12:22.179Z,1.70
2023-03-06T11:15:09.618Z,1.70
2023-03-06T11:17:39.111Z,1.60
2023-03-06T11:20:23.284Z,1.60
2023-03-06T11:22:55.338Z,1.60
2023-03-06T11:25:25.700Z,1.60
2023-03-06T11:27:57.618Z,1.40
2023-03-06T11:30:31.206Z,1.30
2023-03-06T11:33:02.155Z,1.20
2023-03-06T11:35:35.868Z,1.10
2023-03-06T11:38:08.010Z,1.10
2023-03-06T11:40:43.680Z,1.10
2023-03-06T11:43:21.566Z,1.10
2023-03-06T11:45:57.806Z,1.10
2023-03-06T11:48:29.305Z,1.20
2023-03-06T11:51:06.412Z,1.10
2023-03-06T11:53:37.565Z,1.10
2023-03-06T11:56:26.951Z,1.10
2023-03-06T11:59:27.025Z,1.10
2023-03-06T12:02:02.731Z,1.10
2023-03-06T12:04:42.993Z,1.20
2023-03-06T12:07:29.919Z,1.20
2023-03-06T12:10:09.339Z,1.20
2023-03-06T12:13:07.546Z,1.40
2023-03-06T12:15:48.201Z,1.50
2023-03-06T12:18:38.609Z,1.80
2023-03-06T12:21:11.582Z,1.80
2023-03-06T12:24:12.728Z,1.50
2023-03-06T12:26:51.945Z,1.30
2023-03-06T12:29:31.710Z,1.20
2023-03-06T12:32:15.100Z,1.30
2023-03-06T12:34:59.770Z,1.30
2023-03-06T12:37:36.406Z,1.50
2023-03-06T12:40:36.855Z,1.60
2023-03-06T12:43:30.692Z,1.70
2023-03-06T12:46:03.744Z,1.90
2023-03-06T12:48:35.904Z,2.00
2023-03-06T12:51:06.268Z,2.20
2023-03-06T12:53:35.603Z,2.30
2023-03-06T12:56:04.094Z,2.50
2023-03-06T12:58:45.600Z,2.60
2023-03-06T13:01:19.908Z,2.80
2023-03-06T13:04:04.943Z,2.80
2023-03-06T13:06:50.868Z,2.90
2023-03-06T13:09:34.219Z,2.80
2023-03-06T13:12:27.221Z,2.80
2023-03-06T13:14:58.646Z,2.70
2023-03-06T13:17:34.351Z,2.70
2023-03-06T13:20:35.587Z,2.70
2023-03-06T13:23:43.446Z,2.60
2023-03-06T13:26:12.574Z,2.40
2023-03-06T13:28:44.967Z,2.50
2023-03-06T13:31:26.461Z,2.50
2023-03-06T13:33:57.966Z,2.60
2023-03-06T13:36:30.993Z,2.40
2023-03-06T13:39:09.552Z,2.40
2023-03-06T13:41:42.486Z,2.50
2023-03-06T13:44:47.318Z,2.60
2023-03-06T13:47:34.507Z,2.60
2023-03-06T13:50:18.182Z,2.50
2023-03-06T13:52:57.059Z,2.30
2023-03-06T13:55:35.395Z,2.20
2023-03-06T13:58:14.892Z,2.10
2023-03-06T14:01:13.976Z,2.20
2023-03-06T14:03:59.951Z,2.30
2023-03-06T14:06:52.673Z,2.50
2023-03-06T14:09:29.032Z,2.60
2023-03-06T14:12:01.570Z,2.70
2023-03-06T14:14:37.032Z,2.80
2023-03-06T14:17:06.389Z,2.80
2023-03-06T14:19:39.816Z,2.60
2023-03-06T14:22:14.829Z,2.60
2023-03-06T14:24:52.573Z,2.60
2023-03-06T14:27:20.569Z,2.40
2023-03-06T14:29:48.779Z,2.40
2023-03-06T14:32:18.874Z,2.30
2023-03-06T14:34:49.076Z,2.40
2023-03-06T14:37:21.889Z,2.40
2023-03-06T14:39:50.416Z,2.40
2023-03-06T14:42:20.586Z,2.40
2023-03-06T14:44:49.556Z,2.30
2023-03-06T14:47:23.761Z,2.40
2023-03-06T14:50:21.630Z,2.40
2023-03-06T14:52:50.336Z,2.50
2023-03-06T14:55:20.342Z,2.50
2023-03-06T14:57:52.105Z,2.50
2023-03-06T15:00:22.848Z,2.60
2023-03-06T15:02:53.508Z,2.40
2023-03-06T15:05:25.967Z,2.30
2023-03-06T15:07:56.293Z,2.20
2023-03-06T15:10:26.237Z,2.20
2023-03-06T15:12:54.531Z,2.20
2023-03-06T15:15:29.312Z,2.30
2023-03-06T15:17:57.068Z,2.20
2023-03-06T15:20:56.916Z,2.20
2023-03-06T15:23:27.581Z,2.20
2023-03-06T15:25:57.725Z,2.10
2023-03-06T15:28:35.201Z,2.10
2023-03-06T15:31:06.069Z,2.10
2023-03-06T15:33:33.934Z,2.10
2023-03-06T15:36:05.173Z,2.10
2023-03-06T15:38:36.741Z,2.00
2023-03-06T15:41:06.971Z,2.00
2023-03-06T15:43:38.127Z,1.90
2023-03-06T15:46:07.683Z,1.80
2023-03-06T15:48:36.220Z,1.80
2023-03-06T15:51:05.887Z,1.70
2023-03-06T15:53:33.731Z,1.50
2023-03-06T15:56:02.693Z,1.40
2023-03-06T15:58:32.633Z,1.30
2023-03-06T16:01:00.578Z,1.10
2023-03-06T16:03:28.339Z,1.10
2023-03-06T16:05:56.240Z,1.00
2023-03-06T16:08:25.293Z,0.90
2023-03-06T16:10:53.078Z,0.90
2023-03-06T16:13:26.579Z,0.80
2023-03-06T16:15:54.417Z,0.80
2023-03-06T16:18:22.149Z,0.80
2023-03-06T16:20:50.648Z,0.80
2023-03-06T16:23:18.327Z,0.70
2023-03-06T16:25:49.039Z,0.60
2023-03-06T16:28:17.702Z,0.60
2023-03-06T16:30:46.207Z,0.60
2023-03-06T16:33:14.925Z,0.50
2023-03-06T16:35:44.581Z,0.50
2023-03-06T16:38:12.369Z,0.50
2023-03-06T16:40:41.553Z,0.50
2023-03-06T16:43:13.493Z,0.50
2023-03-06T16:45:42.685Z,0.40
2023-03-06T16:48:16.690Z,0.30
2023-03-06T16:50:45.868Z,0.20
2023-03-06T16:53:14.123Z,0.10
2023-03-06T16:55:41.971Z,0.00
2023-03-06T16:58:11.052Z,0.00
2023-03-06T17:00:38.860Z,-0.10
2023-03-06T17:03:07.751Z,-0.20
2023-03-06T17:05:36.911Z,-0.20
2023-03-06T17:08:05.367Z,-0.30
2023-03-06T17:10:33.159Z,-0.40
2023-03-06T17:13:00.897Z,-0.40
2023-03-06T17:15:30.123Z,-0.50
2023-03-06T17:17:58.696Z,-0.50
2023-03-06T17:20:26.502Z,-0.50
2023-03-06T17:22:54.294Z,-0.40
2023-03-06T17:25:22.001Z,-0.40
2023-03-06T17:27:49.714Z,-0.50
2023-03-06T17:30:17.628Z,-0.50
2023-03-06T17:32:46.728Z,-0.60
2023-03-06T17:35:14.451Z,-0.60
2023-03-06T17:37:42.290Z,-0.60
2023-03-06T17:40:11.454Z,-0.60
2023-03-06T17:42:39.222Z,-0.70
2023-03-06T17:45:09.342Z,-0.80
2023-03-06T17:47:37.210Z,-0.90
2023-03-06T17:50:07.010Z,-1.00
2023-03-06T17:52:34.916Z,-1.10
2023-03-06T17:55:02.892Z,-1.00
2023-03-06T17:57:30.668Z,-1.10
2023-03-06T17:59:58.437Z,-1.10
2023-03-06T18:02:26.349Z,-1.10
2023-03-06T18:04:57.538Z,-1.10
2023-03-06T18:07:26.809Z,-1.20
2023-03-06T18:09:54.617Z,-1.20
2023-03-06T18:12:22.390Z,-1.20
2023-03-06T18:14:50.717Z,-1.10
2023-03-06T18:17:18.813Z,-1.10
2023-03-06T18:19:46.641Z,-1.00
2023-03-06T18:22:14.473Z,-1.00
2023-03-06T18:24:43.605Z,-1.00
2023-03-06T18:27:11.374Z,-1.10
2023-03-06T18:29:39.105Z,-1.10
2023-03-06T18:32:09.200Z,-1.10
2023-03-06T18:34:37.730Z,-1.20
2023-03-06T18:37:05.543Z,-1.30
2023-03-06T18:39:33.412Z,-1.40
2023-03-06T18:42:03.123Z,-1.40
2023-03-06T18:44:31.038Z,-1.40
2023-03-06T18:47:02.912Z,-1.50
2023-03-06T18:49:30.738Z,-1.50
2023-03-06T18:51:58.542Z,-1.60
2023-03-06T18:54:28.526Z,-1.60
2023-03-06T18:56:56.370Z,-1.60
2023-03-06T18:59:25.883Z,-1.60
2023-03-06T19:01:57.677Z,-1.60
2023-03-06T19:04:25.779Z,-1.60
2023-03-06T19:06:54.560Z,-1.70
2023-03-06T19:09:22.572Z,-1.70
2023-03-06T19:11:51.812Z,-1.70
2023-03-06T19:14:21.423Z,-1.80
2023-03-06T19:16:50.639Z,-1.80
2023-03-06T19:19:18.487Z,-1.80
2023-03-06T19:21:46.259Z,-1.90
2023-03-06T19:24:14.331Z,-2.00
2023-03-06T19:26:42.631Z,-1.90
2023-03-06T19:29:10.559Z,-2.00
2023-03-06T19:31:38.323Z,-2.10
2023-03-06T19:34:07.384Z,-2.00
2023-03-06T19:36:35.561Z,-1.90
2023-03-06T19:39:05.548Z,-2.00
2023-03-06T19:41:33.343Z,-2.10
2023-03-06T19:44:03.346Z,-2.10
2023-03-06T19:46:31.805Z,-2.20
2023-03-06T19:49:00.971Z,-2.40
2023-03-06T19:51:30.652Z,-2.40
2023-03-06T19:53:59.016Z,-2.40
2023-03-06T19:56:29.084Z,-2.40
2023-03-06T19:58:57.397Z,-2.30
2023-03-06T20:01:26.790Z,-2.30
2023-03-06T20:03:58.378Z,-2.30
2023-03-06T20:06:30.055Z,-2.30
2023-03-06T20:08:59.166Z,-2.30
2023-03-06T20:11:29.844Z,-2.30
2023-03-06T20:13:58.972Z,-2.30
2023-03-06T20:16:28.788Z,-2.40
2023-03-06T20:18:58.888Z,-2.30
2023-03-06T20:21:27.398Z,-2.40
2023-03-06T20:23:57.923Z,-2.50
2023-03-06T20:26:28.290Z,-2.60
2023-03-06T20:28:56.614Z,-2.60
2023-03-06T20:31:27.008Z,-2.60
2023-03-06T20:33:56.061Z,-2.50
2023-03-06T20:36:27.442Z,-2.60
2023-03-06T20:38:55.198Z,-2.60
2023-03-06T20:41:25.460Z,-2.70
2023-03-06T20:43:54.902Z,-2.60
2023-03-06T20:46:23.929Z,-2.70
2023-03-06T20:48:54.126Z,-2.70
2023-03-06T20:51:23.293Z,-2.70
2023-03-06T20:53:53.964Z,-2.70
2023-03-06T20:56:24.643Z,-2.70
2023-03-06T20:58:53.874Z,-2.80
2023-03-06T21:01:22.944Z,-2.70
2023-03-06T21:03:51.281Z,-2.70
2023-03-06T21:06:19.695Z,-2.60
2023-03-06T21:08:48.223Z,-2.50
2023-03-06T21:11:16.426Z,-2.30
2023-03-06T21:13:44.273Z,-2.40
2023-03-06T21:16:15.213Z,-2.30
2023-03-06T21:18:43.149Z,-2.30
2023-03-06T21:21:13.045Z,-2.30
2023-03-06T21:23:41.308Z,-2.20
2023-03-06T21:26:12.521Z,-2.10
2023-03-06T21:28:40.655Z,-2.10
2023-03-06T21:31:09.908Z,-2.10
2023-03-06T21:33:39.073Z,-1.90
2023-03-06T21:36:07.704Z,-1.90
2023-03-06T21:38:36.223Z,-1.90
2023-03-06T21:41:09.214Z,-1.90
2023-03-06T21:43:36.977Z,-1.90
2023-03-06T21:46:04.999Z,-2.00
2023-03-06T21:48:33.131Z,-1.90
2023-03-06T21:51:10.213Z,-1.80
2023-03-06T21:53:40.963Z,-1.80
2023-03-06T21:56:09.527Z,-1.70
2023-03-06T21:58:37.601Z,-1.80
2023-03-06T22:01:09.752Z,-1.90
2023-03-06T22:03:37.540Z,-2.00
2023-03-06T22:06:11.107Z,-2.10
2023-03-06T22:08:39.184Z,-2.20
2023-03-06T22:11:08.268Z,-2.20
2023-03-06T22:13:36.212Z,-2.30
2023-03-06T22:16:04.407Z,-2.40
2023-03-06T22:18:32.522Z,-2.50
2023-03-06T22:21:00.221Z,-2.50
2023-03-06T22:23:29.252Z,-2.50
2023-03-06T22:26:02.390Z,-2.40
2023-03-06T22:28:30.120Z,-2.40
2023-03-06T22:31:04.103Z,-2.30
2023-03-06T22:33:31.893Z,-2.40
2023-03-06T22:36:06.116Z,-2.40
2023-03-06T22:38:35.893Z,-2.40
2023-03-06T22:41:04.781Z,-2.50
2023-03-06T22:43:33.263Z,-2.60
2023-03-06T22:46:02.910Z,-2.70
2023-03-06T22:48:30.750Z,-2.80
2023-03-06T22:51:03.009Z,-2.80
2023-03-06T22:53:30.747Z,-2.90
2023-03-06T22:56:00.295Z,-2.90
2023-03-06T22:58:34.165Z,-2.90
2023-03-06T23:01:06.074Z,-2.80
2023-03-06T23:03:33.899Z,-2.80
2023-03-06T23:06:01.643Z,-2.80
2023-03-06T23:08:29.358Z,-2.80
2023-03-06T23:10:57.051Z,-2.70
2023-03-06T23:13:26.096Z,-2.60
2023-03-06T23:15:53.823Z,-2.50
2023-03-06T23:18:21.547Z,-2.40
2023-03-06T23:20:49.359Z,-2.20
2023-03-06T23:23:17.152Z,-2.10
2023-03-06T23:25:45.237Z,-1.90
2023-03-06T23:28:13.191Z,-1.80
2023-03-06T23:30:43.081Z,-1.70
2023-03-06T23:33:11.425Z,-1.60
2023-03-06T23:35:39.646Z,-1.60
2023-03-06T23:38:07.607Z,-1.50
2023-03-06T23:40:35.553Z,-1.40
2023-03-06T23:43:03.709Z,-1.40
2023-03-06T23:45:31.552Z,-1.40
2023-03-06T23:48:00.609Z,-1.40
2023-03-06T23:50:28.317Z,-1.30
2023-03-06T23:52:56.711Z,-1.30
2023-03-06T23:55:24.458Z,-1.20
2023-03-06T23:57:52.188Z,-1.10
